Time;durP1;ratioP1;P1;durP2;ratioP2;P2;SDS_P1;SDS_P2;PMS_P1;PMS_P2;Temp;Humidity;BMP_temperature;BMP_pressure;BME280_temperature;BME280_humidity;BME280_pressure;Samples;Min_cycle;Max_cycle;Signal;HPM_P1;HPM_P2
2023/10/03 00:00:56;;;;;;;13.87;8.83;;;;;;;16.23;79.87;100731.94;5036922;28;20211;-75
2023/10/03 00:03:25;;;;;;;12.83;8.67;;;;;;;16.26;80.01;100729.91;5036496;28;20621;-75
2023/10/03 00:05:56;;;;;;;13.30;8.53;;;;;;;16.23;79.96;100729.25;5036843;28;20294;-75
2023/10/03 00:08:25;;;;;;;13.67;8.87;;;;;;;16.22;80.17;100718.66;5036431;28;20734;-75
2023/10/03 00:10:53;;;;;;;14.43;8.00;;;;;;;16.22;80.13;100711.41;5036753;28;20203;-74
2023/10/03 00:13:24;;;;;;;13.50;8.30;;;;;;;16.23;80.93;100694.13;5036572;28;20369;-75
2023/10/03 00:15:53;;;;;;;12.73;8.00;;;;;;;16.23;80.54;100696.84;5036554;28;20225;-74
2023/10/03 00:18:22;;;;;;;15.10;8.50;;;;;;;16.26;80.25;100698.34;5036576;28;20249;-74
2023/10/03 00:20:50;;;;;;;13.67;8.17;;;;;;;16.22;79.85;100689.78;5036613;28;20265;-73
2023/10/03 00:23:20;;;;;;;11.57;8.10;;;;;;;16.27;80.39;100691.06;5036396;28;20215;-73
2023/10/03 00:25:49;;;;;;;12.83;7.63;;;;;;;16.24;80.50;100678.75;5037027;28;20207;-73
2023/10/03 00:28:19;;;;;;;12.37;7.67;;;;;;;16.29;80.53;100679.03;5036771;28;20206;-74
2023/10/03 00:30:50;;;;;;;12.17;8.17;;;;;;;16.30;80.64;100680.66;5037135;28;20599;-74
2023/10/03 00:33:21;;;;;;;14.87;8.30;;;;;;;16.34;80.53;100681.09;5036505;28;20214;-74
2023/10/03 00:35:51;;;;;;;13.00;8.20;;;;;;;16.27;80.40;100669.44;5036438;28;20195;-74
2023/10/03 00:38:22;;;;;;;14.33;8.57;;;;;;;16.24;80.24;100654.44;5036318;28;20211;-74
2023/10/03 00:40:55;;;;;;;13.57;8.07;;;;;;;16.23;80.72;100650.91;5036127;28;20213;-74
2023/10/03 00:43:25;;;;;;;12.73;7.50;;;;;;;16.28;81.22;100646.78;5036900;28;20254;-74
2023/10/03 00:45:53;;;;;;;11.37;7.93;;;;;;;16.28;81.29;100628.72;5036029;28;20249;-75
2023/10/03 00:48:22;;;;;;;11.97;8.03;;;;;;;16.28;81.33;100619.78;5035700;28;20203;-74
2023/10/03 00:50:53;;;;;;;13.27;7.83;;;;;;;16.30;81.53;100615.81;5035975;28;20264;-74
2023/10/03 00:53:23;;;;;;;15.17;8.67;;;;;;;16.31;81.15;100622.91;5035830;28;20296;-75
2023/10/03 00:55:56;;;;;;;14.43;8.83;;;;;;;16.31;81.52;100612.09;5035844;28;20273;-75
2023/10/03 00:58:28;;;;;;;14.20;8.03;;;;;;;16.32;81.93;100604.84;5035574;28;20195;-75
2023/10/03 01:00:58;;;;;;;16.77;8.07;;;;;;;16.31;81.16;100595.88;5035831;28;20294;-74
2023/10/03 01:03:30;;;;;;;14.00;7.77;;;;;;;16.31;80.84;100598.59;5035665;28;20261;-75
2023/10/03 01:06:04;;;;;;;11.33;7.70;;;;;;;16.29;81.94;100589.03;5034520;28;20657;-74
2023/10/03 01:08:36;;;;;;;12.73;8.17;;;;;;;16.29;81.60;100586.31;5035733;28;20565;-74
2023/10/03 01:11:05;;;;;;;13.47;8.67;;;;;;;16.29;82.73;100587.16;5035647;28;20257;-74
2023/10/03 01:13:34;;;;;;;15.90;8.67;;;;;;;16.26;82.44;100576.75;5035469;28;20289;-75
2023/10/03 01:16:06;;;;;;;13.90;8.33;;;;;;;16.25;82.21;100575.09;5035429;28;20211;-75
2023/10/03 01:18:37;;;;;;;15.47;9.03;;;;;;;16.26;82.61;100570.53;5035195;28;20649;-75
2023/10/03 01:21:06;;;;;;;16.10;10.10;;;;;;;16.28;81.68;100571.97;5035469;28;20187;-75
2023/10/03 01:23:36;;;;;;;14.13;9.00;;;;;;;16.28;82.40;100563.88;5034891;28;20296;-75
2023/10/03 01:26:06;;;;;;;16.53;9.43;;;;;;;16.31;81.88;100559.94;5035107;28;20667;-75
2023/10/03 01:28:35;;;;;;;16.70;9.73;;;;;;;16.30;82.03;100561.78;5035264;28;20211;-74
2023/10/03 01:31:03;;;;;;;15.70;9.33;;;;;;;16.32;82.18;100553.50;5035275;28;20212;-74
2023/10/03 01:33:33;;;;;;;16.63;10.00;;;;;;;16.33;81.80;100547.91;5035141;28;20254;-75
2023/10/03 01:36:03;;;;;;;15.17;9.20;;;;;;;16.36;81.28;100546.66;5035775;28;20213;-74
2023/10/03 01:38:31;;;;;;;15.53;9.53;;;;;;;16.38;82.38;100541.88;5035038;28;20638;-75
2023/10/03 01:41:02;;;;;;;16.73;9.73;;;;;;;16.40;81.03;100540.66;5035013;28;20215;-75
2023/10/03 01:43:30;;;;;;;18.87;10.20;;;;;;;16.40;82.41;100523.63;5035143;28;20231;-75
2023/10/03 01:45:59;;;;;;;15.43;9.27;;;;;;;16.40;81.61;100524.44;5034841;28;20270;-75
2023/10/03 01:48:27;;;;;;;17.87;10.03;;;;;;;16.41;81.90;100522.56;5034884;28;20199;-75
2023/10/03 01:50:56;;;;;;;15.57;9.97;;;;;;;16.41;81.86;100509.03;5034852;28;20207;-75
2023/10/03 01:53:25;;;;;;;17.17;9.60;;;;;;;16.42;81.04;100510.72;5034699;28;20226;-75
2023/10/03 01:55:53;;;;;;;15.77;9.73;;;;;;;16.42;81.87;100502.63;5034372;28;20688;-75
2023/10/03 01:58:25;;;;;;;14.90;10.10;;;;;;;16.41;81.01;100504.47;5034608;28;20236;-75
2023/10/03 02:00:53;;;;;;;16.60;10.13;;;;;;;16.42;82.24;100489.09;5035112;28;20191;-74
2023/10/03 02:03:23;;;;;;;15.57;10.03;;;;;;;16.42;81.64;100489.94;5034227;28;20680;-75
2023/10/03 02:05:52;;;;;;;16.00;9.57;;;;;;;16.43;81.51;100480.81;5034602;28;20202;-75
2023/10/03 02:08:21;;;;;;;16.37;9.73;;;;;;;16.45;81.57;100475.19;5034500;28;20203;-75
2023/10/03 02:10:51;;;;;;;14.77;9.73;;;;;;;16.45;81.35;100473.31;5034447;28;20303;-74
2023/10/03 02:13:22;;;;;;;16.00;9.87;;;;;;;16.46;81.38;100477.69;5034368;28;20231;-75
2023/10/03 02:15:53;;;;;;;14.93;9.63;;;;;;;16.46;81.28;100464.19;5034394;28;20245;-75
2023/10/03 02:18:22;;;;;;;15.83;9.90;;;;;;;16.46;80.66;100458.78;5034200;28;20305;-75
2023/10/03 02:21:01;;;;;;;16.10;9.33;;;;;;;16.46;81.21;100456.06;5034250;28;20234;-75
2023/10/03 02:23:32;;;;;;;17.97;10.03;;;;;;;16.46;81.21;100458.78;5034007;28;20313;-75
2023/10/03 02:26:10;;;;;;;15.73;9.60;;;;;;;16.43;81.82;100442.97;5034196;28;20214;-75
2023/10/03 02:28:40;;;;;;;16.50;9.57;;;;;;;16.43;82.21;100432.16;5034219;28;20557;-75
2023/10/03 02:31:10;;;;;;;16.53;9.20;;;;;;;16.41;81.30;100428.81;5034149;28;20278;-75
2023/10/03 02:33:40;;;;;;;14.90;9.33;;;;;;;16.41;80.55;100425.28;5033688;28;20708;-75
2023/10/03 02:36:09;;;;;;;19.37;9.97;;;;;;;16.41;81.39;100406.38;5034004;28;20206;-75
2023/10/03 02:38:39;;;;;;;14.70;9.30;;;;;;;16.39;81.89;100403.06;5033595;28;20772;-75
2023/10/03 02:41:08;;;;;;;17.93;10.27;;;;;;;16.38;81.89;100398.69;5033923;28;20218;-74
2023/10/03 02:43:42;;;;;;;16.40;10.20;;;;;;;16.35;81.36;100405.34;5033770;28;20236;-74
2023/10/03 02:46:11;;;;;;;16.73;10.20;;;;;;;16.36;81.90;100396.19;5033850;28;20252;-74
2023/10/03 02:48:41;;;;;;;15.53;9.50;;;;;;;16.35;81.16;100396.41;5033813;28;20206;-75
2023/10/03 02:51:12;;;;;;;17.67;9.73;;;;;;;16.35;81.65;100396.41;5033474;28;20581;-74
2023/10/03 02:53:40;;;;;;;15.50;9.93;;;;;;;16.36;81.71;100388.09;5033714;28;20311;-74
2023/10/03 02:56:09;;;;;;;16.13;10.10;;;;;;;16.39;80.66;100382.28;5033753;28;20345;-75
2023/10/03 02:58:38;;;;;;;17.27;9.67;;;;;;;16.46;80.80;100380.41;5033300;28;20685;-74
2023/10/03 03:01:09;;;;;;;17.23;10.20;;;;;;;16.48;80.19;100378.31;5033640;28;20234;-75
2023/10/03 03:03:38;;;;;;;14.47;9.20;;;;;;;16.50;80.58;100373.56;5033603;28;20226;-76
2023/10/03 03:06:14;;;;;;;17.63;10.20;;;;;;;16.50;80.99;100356.50;5033284;28;20211;-75
2023/10/03 03:08:46;;;;;;;13.87;8.87;;;;;;;16.50;80.75;100357.34;5033262;28;20281;-75
2023/10/03 03:11:15;;;;;;;16.83;10.47;;;;;;;16.51;80.38;100344.63;5033616;28;20251;-75
2023/10/03 03:13:44;;;;;;;16.93;9.77;;;;;;;16.52;81.07;100339.03;5033398;28;20231;-75
2023/10/03 03:16:15;;;;;;;15.30;9.90;;;;;;;16.52;80.79;100328.22;5033451;28;20298;-75
2023/10/03 03:18:43;;;;;;;14.93;9.30;;;;;;;16.53;80.34;100318.25;5033140;28;20580;-74
2023/10/03 03:21:14;;;;;;;18.27;9.53;;;;;;;16.54;80.24;100320.72;5033518;28;20213;-75
2023/10/03 03:23:56;;;;;;;17.43;9.83;;;;;;;16.54;80.33;100301.00;5033239;28;20238;-74
2023/10/03 03:26:36;;;;;;;16.20;9.40;;;;;;;16.55;79.85;100291.84;5033729;28;20282;-74
2023/10/03 03:29:07;;;;;;;16.80;10.10;;;;;;;16.56;80.46;100296.25;5035034;28;20189;-75
2023/10/03 03:31:37;;;;;;;16.33;9.47;;;;;;;16.55;79.59;100284.59;5038443;28;20199;-74
2023/10/03 03:34:05;;;;;;;17.10;9.80;;;;;;;16.57;79.25;100281.72;5037854;28;20624;-76
2023/10/03 03:36:34;;;;;;;16.10;9.60;;;;;;;16.55;79.63;100276.50;5037392;28;20238;-76
2023/10/03 03:39:05;;;;;;;14.67;9.43;;;;;;;16.55;79.45;100267.53;5037194;28;20273;-76
2023/10/03 03:41:35;;;;;;;19.37;10.67;;;;;;;16.55;79.29;100268.38;5036950;28;20642;-74
2023/10/03 03:44:11;;;;;;;18.53;10.33;;;;;;;16.55;79.45;100257.56;5036815;28;20223;-74
2023/10/03 03:46:41;;;;;;;18.37;10.20;;;;;;;16.55;79.56;100268.38;5036912;28;20560;-74
2023/10/03 03:49:10;;;;;;;16.90;10.37;;;;;;;16.54;79.88;100269.38;5037171;28;20194;-75
2023/10/03 03:51:40;;;;;;;18.77;10.83;;;;;;;16.56;79.04;100280.88;5037042;28;20287;-75
2023/10/03 03:54:12;;;;;;;19.27;10.50;;;;;;;16.59;78.03;100274.22;5036975;28;20288;-75
2023/10/03 03:56:41;;;;;;;17.90;10.30;;;;;;;16.59;78.52;100272.34;5036733;28;20662;-74
2023/10/03 03:59:13;;;;;;;19.97;10.53;;;;;;;16.58;78.55;100267.97;5036929;28;20233;-75
2023/10/03 04:01:43;;;;;;;18.10;10.40;;;;;;;16.58;78.61;100256.31;5036951;28;20195;-75
2023/10/03 04:04:12;;;;;;;19.07;10.57;;;;;;;16.58;78.88;100257.16;5036848;28;20227;-75
2023/10/03 04:06:42;;;;;;;18.03;11.20;;;;;;;16.61;77.45;100259.44;5036512;28;20673;-75
2023/10/03 04:09:11;;;;;;;18.10;10.93;;;;;;;16.64;78.20;100261.72;5036787;28;20237;-75
2023/10/03 04:11:41;;;;;;;18.47;10.83;;;;;;;16.68;77.25;100259.41;5036728;28;20206;-74
2023/10/03 04:14:10;;;;;;;19.67;11.57;;;;;;;16.72;76.49;100247.97;5036639;28;20227;-74
2023/10/03 04:16:43;;;;;;;20.67;11.20;;;;;;;16.69;77.00;100248.41;5036640;28;20634;-75
2023/10/03 04:19:13;;;;;;;18.90;11.23;;;;;;;16.84;75.88;100225.69;5036567;28;20242;-75
2023/10/03 04:21:42;;;;;;;20.13;11.73;;;;;;;16.81;76.30;100197.22;5036550;28;20294;-75
2023/10/03 04:24:12;;;;;;;19.77;10.87;;;;;;;16.79;77.04;100193.06;5035977;28;20635;-75
2023/10/03 04:26:42;;;;;;;20.70;11.43;;;;;;;16.85;75.97;100194.94;5036130;28;20219;-74
2023/10/03 04:29:13;;;;;;;20.33;11.23;;;;;;;16.82;76.84;100195.31;5036448;28;20193;-74
2023/10/03 04:31:41;;;;;;;19.33;11.33;;;;;;;16.87;75.87;100192.81;5036364;28;20301;-75
2023/10/03 04:34:11;;;;;;;21.80;12.50;;;;;;;16.84;76.35;100179.75;5036261;28;20265;-75
2023/10/03 04:36:42;;;;;;;20.17;12.03;;;;;;;16.91;75.61;100186.78;5036463;28;20207;-75
2023/10/03 04:39:11;;;;;;;22.13;12.30;;;;;;;16.98;75.59;100175.94;5035857;28;20770;-75
2023/10/03 04:41:43;;;;;;;19.00;11.77;;;;;;;16.97;75.70;100176.97;5034830;28;20285;-75
2023/10/03 04:44:15;;;;;;;21.57;12.13;;;;;;;17.02;75.26;100172.56;5036048;28;20238;-74
2023/10/03 04:46:45;;;;;;;21.20;12.23;;;;;;;17.04;75.17;100164.25;5036096;28;20219;-75
2023/10/03 04:49:15;;;;;;;21.43;12.60;;;;;;;17.05;74.83;100164.03;5036060;28;20216;-75
2023/10/03 04:51:46;;;;;;;22.83;12.90;;;;;;;17.15;74.58;100172.53;5035660;28;20249;-75
2023/10/03 04:54:17;;;;;;;21.17;12.27;;;;;;;17.05;75.47;100161.34;5035902;28;20313;-75
2023/10/03 04:56:48;;;;;;;21.20;11.97;;;;;;;17.04;75.06;100143.44;5035917;28;20214;-75
2023/10/03 04:59:21;;;;;;;20.40;11.13;;;;;;;17.01;75.55;100134.94;5035851;28;20238;-75
2023/10/03 05:01:50;;;;;;;22.23;12.37;;;;;;;16.97;76.13;100128.28;5036309;28;20282;-75
2023/10/03 05:04:18;;;;;;;20.17;12.13;;;;;;;16.95;76.77;100122.28;5035757;28;20227;-75
2023/10/03 05:06:49;;;;;;;20.77;12.23;;;;;;;16.93;76.12;100127.91;5035450;28;20687;-75
2023/10/03 05:09:19;;;;;;;23.17;12.13;;;;;;;16.93;76.60;100122.50;5035453;28;20191;-75
2023/10/03 05:11:50;;;;;;;20.70;11.93;;;;;;;16.92;76.52;100128.13;5035398;28;20657;-75
2023/10/03 05:14:20;;;;;;;22.30;12.27;;;;;;;16.91;76.51;100121.06;5035250;28;20277;-75
2023/10/03 05:16:50;;;;;;;22.63;12.50;;;;;;;16.94;75.82;100129.56;5035540;28;20215;-75
2023/10/03 05:19:20;;;;;;;21.50;12.30;;;;;;;16.93;76.27;100125.19;5035433;28;20226;-75
2023/10/03 05:21:50;;;;;;;22.03;11.67;;;;;;;17.04;74.60;100123.69;5035175;28;20246;-75
2023/10/03 05:24:19;;;;;;;20.87;12.03;;;;;;;17.00;75.86;100123.28;5035015;28;20326;-75
2023/10/03 05:26:48;;;;;;;21.63;12.17;;;;;;;16.99;75.47;100118.06;5035334;28;20260;-75
2023/10/03 05:29:17;;;;;;;20.80;12.60;;;;;;;17.03;74.71;100136.38;5035289;28;20613;-75
2023/10/03 05:31:46;;;;;;;22.17;12.53;;;;;;;17.00;75.60;100125.16;5034947;28;20753;-75
2023/10/03 05:34:15;;;;;;;24.33;12.30;;;;;;;16.98;76.59;100122.69;5034819;28;20318;-75
2023/10/03 05:36:44;;;;;;;23.50;12.50;;;;;;;16.96;76.43;100123.94;5035191;28;20613;-75
2023/10/03 05:39:15;;;;;;;19.80;12.23;;;;;;;16.95;76.10;100120.38;5034747;28;20700;-75
2023/10/03 05:41:47;;;;;;;23.80;12.47;;;;;;;17.02;74.89;100128.50;5034813;28;20202;-75
2023/10/03 05:44:18;;;;;;;21.53;13.30;;;;;;;16.99;76.03;100128.91;5034631;28;20231;-75
2023/10/03 05:46:52;;;;;;;22.17;12.57;;;;;;;17.00;75.30;100125.16;5034659;28;20609;-75
2023/10/03 05:49:22;;;;;;;22.17;12.33;;;;;;;17.04;74.59;100134.50;5034973;28;20190;-75
2023/10/03 05:51:51;;;;;;;20.50;12.67;;;;;;;17.09;74.61;100129.25;5034464;28;20203;-75
2023/10/03 05:54:21;;;;;;;25.00;12.77;;;;;;;17.08;74.91;100133.03;5034720;28;20262;-75
2023/10/03 05:56:50;;;;;;;20.90;12.47;;;;;;;17.20;74.57;100132.09;5034480;28;20214;-75
2023/10/03 05:59:20;;;;;;;20.53;12.40;;;;;;;17.19;74.67;100129.63;5034624;28;20593;-75
2023/10/03 06:01:49;;;;;;;21.60;12.23;;;;;;;17.28;73.77;100128.31;5034698;28;20245;-76
2023/10/03 06:04:18;;;;;;;23.87;13.07;;;;;;;17.28;73.79;100132.91;5034579;28;20314;-75
2023/10/03 06:06:47;;;;;;;22.17;13.20;;;;;;;17.23;74.30;100134.38;5034593;28;20209;-75
2023/10/03 06:09:15;;;;;;;22.63;12.03;;;;;;;17.24;74.08;100130.63;5034537;28;20234;-75
2023/10/03 06:11:45;;;;;;;23.30;13.50;;;;;;;17.22;75.12;100135.44;5034179;28;20677;-74
2023/10/03 06:14:14;;;;;;;23.17;12.93;;;;;;;17.26;74.40;100129.59;5035621;28;20313;-74
2023/10/03 06:16:44;;;;;;;26.70;12.40;;;;;;;17.29;74.14;100129.16;5034417;28;20719;-74
2023/10/03 06:19:12;;;;;;;21.70;11.90;;;;;;;17.36;74.34;100129.94;5034629;28;20230;-75
2023/10/03 06:21:41;;;;;;;21.47;12.03;;;;;;;17.34;74.16;100138.25;5034524;28;20210;-75
2023/10/03 06:24:10;;;;;;;21.47;12.30;;;;;;;17.41;74.28;100139.03;5034117;28;20249;-75
2023/10/03 06:26:38;;;;;;;23.40;12.27;;;;;;;17.40;74.06;100142.78;5034862;28;20213;-73
2023/10/03 06:29:08;;;;;;;19.50;11.93;;;;;;;17.52;73.85;100138.34;5033833;28;20617;-75
2023/10/03 06:31:37;;;;;;;22.43;12.50;;;;;;;17.47;74.00;100143.56;5034132;28;20203;-75
2023/10/03 06:34:05;;;;;;;24.30;11.80;;;;;;;17.56;73.39;100136.06;5033700;28;20671;-75
2023/10/03 06:36:35;;;;;;;21.10;12.57;;;;;;;17.52;73.66;100135.63;5034032;28;20210;-75
2023/10/03 06:39:04;;;;;;;19.70;12.20;;;;;;;17.58;73.32;100142.91;5033938;28;20302;-75
2023/10/03 06:41:33;;;;;;;23.07;12.80;;;;;;;17.61;73.28;100150.56;5033622;28;20699;-75
2023/10/03 06:44:02;;;;;;;22.27;12.30;;;;;;;17.59;73.66;100149.97;5033873;28;20231;-75
2023/10/03 06:46:34;;;;;;;22.07;12.70;;;;;;;17.65;73.43;100146.38;5033938;28;20577;-75
2023/10/03 06:49:03;;;;;;;23.27;12.83;;;;;;;17.78;72.35;100160.84;5033948;28;20198;-75
2023/10/03 06:51:32;;;;;;;22.60;12.87;;;;;;;17.88;71.83;100158.47;5033488;28;20565;-75
2023/10/03 06:54:00;;;;;;;23.03;12.07;;;;;;;17.90;71.85;100154.50;5033690;28;20258;-75
2023/10/03 06:56:32;;;;;;;23.80;12.33;;;;;;;17.97;71.38;100170.69;5033447;28;20548;-75
2023/10/03 06:59:02;;;;;;;22.93;11.50;;;;;;;18.02;71.40;100157.31;5033503;28;20282;-75
2023/10/03 07:01:34;;;;;;;22.17;12.83;;;;;;;18.03;71.74;100164.38;5033480;28;20576;-76
2023/10/03 07:04:03;;;;;;;22.23;12.50;;;;;;;18.07;71.23;100161.03;5032943;28;20314;-75
2023/10/03 07:06:33;;;;;;;27.40;12.33;;;;;;;18.08;71.62;100156.44;5033233;28;20664;-75
2023/10/03 07:09:05;;;;;;;23.37;13.07;;;;;;;18.09;71.43;100158.06;5033319;28;20207;-75
2023/10/03 07:11:34;;;;;;;21.20;12.40;;;;;;;18.10;71.92;100165.16;5033294;28;20192;-75
2023/10/03 07:14:03;;;;;;;25.33;12.37;;;;;;;18.09;71.83;100163.50;5033432;28;20637;-75
2023/10/03 07:16:38;;;;;;;20.33;12.13;;;;;;;18.18;71.37;100167.59;5033438;28;20213;-75
2023/10/03 07:19:09;;;;;;;23.77;11.83;;;;;;;18.29;70.94;100174.97;5033504;28;20197;-75
2023/10/03 07:21:37;;;;;;;22.27;12.83;;;;;;;18.42;70.44;100180.28;5033417;28;20207;-75
2023/10/03 07:24:07;;;;;;;19.37;11.27;;;;;;;18.33;71.04;100176.19;5033029;28;20317;-75
2023/10/03 07:26:36;;;;;;;22.63;12.10;;;;;;;18.33;71.16;100170.75;5033198;28;20207;-76
2023/10/03 07:29:06;;;;;;;19.17;11.53;;;;;;;18.48;70.70;100170.41;5033397;28;20207;-76
2023/10/03 07:31:34;;;;;;;22.03;12.00;;;;;;;18.64;70.17;100167.09;5033304;28;20295;-76
2023/10/03 07:34:04;;;;;;;21.90;11.67;;;;;;;18.53;71.06;100171.41;5033273;28;20281;-76
2023/10/03 07:36:33;;;;;;;18.97;11.70;;;;;;;18.58;70.60;100181.56;5033303;28;20297;-76
2023/10/03 07:39:01;;;;;;;19.27;11.97;;;;;;;18.56;70.89;100170.94;5033256;28;20238;-76
2023/10/03 07:41:30;;;;;;;20.57;11.90;;;;;;;18.59;70.97;100186.78;5032819;28;20312;-76
2023/10/03 07:44:00;;;;;;;24.30;12.53;;;;;;;18.62;71.01;100178.19;5033152;28;20227;-76
2023/10/03 07:46:28;;;;;;;21.10;11.97;;;;;;;18.59;71.43;100165.09;5033197;28;20289;-76
2023/10/03 07:48:57;;;;;;;17.93;11.13;;;;;;;18.56;72.30;100160.09;5032926;28;20581;-76
2023/10/03 07:51:27;;;;;;;22.83;12.40;;;;;;;18.53;72.25;100171.41;5033171;28;20272;-76
2023/10/03 07:53:57;;;;;;;18.77;11.37;;;;;;;18.49;73.03;100164.72;5033117;28;20230;-76
2023/10/03 07:56:30;;;;;;;21.27;11.87;;;;;;;18.47;73.79;100176.88;5033141;28;20203;-76
2023/10/03 07:59:01;;;;;;;22.93;12.00;;;;;;;18.45;74.63;100185.25;5033918;28;20278;-77
2023/10/03 08:01:32;;;;;;;18.17;11.53;;;;;;;18.49;73.34;100186.41;5033028;28;20233;-76
2023/10/03 08:04:07;;;;;;;20.77;11.47;;;;;;;18.51;73.97;100195.22;5033085;28;20309;-76
2023/10/03 08:06:39;;;;;;;21.10;12.10;;;;;;;18.50;74.56;100188.13;5033113;28;20202;-76
2023/10/03 08:09:08;;;;;;;18.00;11.43;;;;;;;18.57;74.04;100199.72;5032784;28;20653;-76
2023/10/03 08:11:38;;;;;;;20.60;11.37;;;;;;;18.57;73.60;100204.31;5032983;28;20238;-76
2023/10/03 08:14:11;;;;;;;19.83;11.57;;;;;;;18.57;74.05;100194.31;5032863;28;20288;-76
2023/10/03 08:16:41;;;;;;;21.60;11.27;;;;;;;18.70;72.85;100182.47;5036758;28;20285;-76
2023/10/03 08:19:10;;;;;;;19.80;11.60;;;;;;;18.81;72.66;100213.44;5036565;28;20257;-76
2023/10/03 08:21:43;;;;;;;19.63;11.03;;;;;;;18.74;73.37;100214.34;5036211;28;20229;-77
2023/10/03 08:24:14;;;;;;;18.20;11.60;;;;;;;18.76;73.25;100224.13;5036363;28;20288;-76
2023/10/03 08:26:46;;;;;;;21.30;12.43;;;;;;;18.82;73.26;100224.06;5036543;28;20191;-76
2023/10/03 08:29:21;;;;;;;19.27;11.90;;;;;;;18.83;73.22;100211.34;5036480;28;20195;-76
2023/10/03 08:31:56;;;;;;;19.97;11.97;;;;;;;18.84;73.41;100188.56;5036091;28;20659;-76
2023/10/03 08:34:25;;;;;;;21.40;11.40;;;;;;;18.89;72.83;100213.13;5036340;28;20227;-76
2023/10/03 08:36:58;;;;;;;20.27;11.47;;;;;;;19.00;72.79;100226.78;5036364;28;20242;-76
2023/10/03 08:39:32;;;;;;;22.37;12.10;;;;;;;19.05;72.64;100239.63;5036287;28;20197;-76
2023/10/03 08:42:12;;;;;;;18.70;11.60;;;;;;;19.04;72.60;100238.81;5035902;28;20210;-77
2023/10/03 08:44:49;;;;;;;23.47;11.77;;;;;;;19.09;72.63;100243.56;5036132;28;20254;-76
2023/10/03 08:47:28;;;;;;;19.80;11.70;;;;;;;19.15;72.15;100239.94;5036138;28;20199;-76
2023/10/03 08:50:10;;;;;;;20.07;11.53;;;;;;;19.13;72.13;100233.91;5035675;28;20649;-77
2023/10/03 08:52:47;;;;;;;18.80;11.70;;;;;;;19.06;72.99;100233.16;5036096;28;20540;-77
2023/10/03 08:55:19;;;;;;;22.20;11.97;;;;;;;19.06;73.35;100247.56;5036096;28;20223;-76
2023/10/03 08:57:49;;;;;;;21.50;12.70;;;;;;;19.03;73.28;100255.31;5036056;28;20546;-74
2023/10/03 09:00:25;;;;;;;19.00;11.33;;;;;;;19.10;73.20;100242.50;5035846;28;20302;-73
2023/10/03 09:03:05;;;;;;;20.43;11.63;;;;;;;19.17;72.97;100226.97;5035958;28;20274;-74
2023/10/03 09:05:34;;;;;;;22.40;11.43;;;;;;;19.27;72.64;100237.28;5035879;28;20260;-74
2023/10/03 09:08:08;;;;;;;41.07;33.83;;;;;;;19.28;72.70;100220.75;5035937;28;20677;-73
2023/10/03 09:10:50;;;;;;;20.83;13.23;;;;;;;19.39;72.27;100225.41;5036054;28;20187;-73
2023/10/03 09:13:29;;;;;;;290.90;268.57;;;;;;;19.37;72.94;100238.41;5035861;28;20227;-73
2023/10/03 09:16:02;;;;;;;26.03;21.63;;;;;;;19.48;72.35;100245.81;5035965;28;20218;-73
2023/10/03 09:18:40;;;;;;;103.23;92.63;;;;;;;19.45;72.95;100242.72;5035651;28;20195;-73
2023/10/03 09:21:15;;;;;;;21.43;13.93;;;;;;;19.50;72.94;100227.38;5035615;28;20215;-74
2023/10/03 09:24:09;;;;;;;69.73;44.30;;;;;;;19.51;73.52;100223.63;5035160;28;20240;-73
2023/10/03 09:26:51;;;;;;;38.77;24.93;;;;;;;19.54;73.16;100238.59;5034405;28;20188;-73
2023/10/03 09:29:30;;;;;;;22.97;15.60;;;;;;;19.63;72.78;100235.31;5035501;28;20195;-73
2023/10/03 09:32:07;;;;;;;20.53;11.63;;;;;;;19.77;72.35;100232.41;5035055;28;20645;-73
2023/10/03 09:34:40;;;;;;;23.13;13.30;;;;;;;19.77;73.23;100235.97;5035230;28;20235;-72
2023/10/03 09:37:09;;;;;;;27.67;21.97;;;;;;;19.97;72.32;100238.34;5034912;28;20195;-72
2023/10/03 09:39:49;;;;;;;17.70;11.83;;;;;;;19.99;71.79;100245.25;5035145;28;20252;-73
2023/10/03 09:42:23;;;;;;;19.83;13.07;;;;;;;19.93;72.79;100250.78;5034762;28;20707;-73
2023/10/03 09:44:57;;;;;;;22.33;12.87;;;;;;;20.05;71.67;100251.63;5035029;28;20277;-72
2023/10/03 09:47:30;;;;;;;20.80;12.13;;;;;;;20.00;72.22;100251.50;5035087;28;20190;-72
2023/10/03 09:50:06;;;;;;;18.43;11.80;;;;;;;20.04;72.10;100249.94;5034631;28;20533;-72
2023/10/03 09:52:37;;;;;;;18.77;12.50;;;;;;;20.08;71.80;100259.28;5034941;28;20187;-72
2023/10/03 09:55:21;;;;;;;18.57;12.13;;;;;;;20.11;72.18;100256.09;5034835;28;20313;-72
2023/10/03 09:57:54;;;;;;;19.43;12.37;;;;;;;20.05;72.28;100252.44;5034763;28;20191;-72
2023/10/03 10:00:40;;;;;;;18.13;12.00;;;;;;;20.09;71.53;100269.94;5034645;28;20195;-72
2023/10/03 10:03:13;;;;;;;19.73;11.63;;;;;;;20.00;72.51;100260.47;5034327;28;20565;-72
2023/10/03 10:05:59;;;;;;;25.63;11.97;;;;;;;20.01;72.79;100269.44;5034325;28;20281;-72
2023/10/03 10:08:36;;;;;;;17.30;10.77;;;;;;;20.05;72.59;100285.06;5034671;28;20198;-72
2023/10/03 10:11:10;;;;;;;25.00;12.27;;;;;;;19.99;72.64;100274.28;5034570;28;20191;-72
2023/10/03 10:13:44;;;;;;;18.57;11.37;;;;;;;20.06;72.32;100275.84;5034526;28;20241;-72
2023/10/03 10:16:20;;;;;;;18.33;10.50;;;;;;;20.10;72.11;100290.59;5034550;28;20195;-73
2023/10/03 10:19:08;;;;;;;18.37;10.33;;;;;;;20.19;71.61;100293.84;5034097;28;20662;-73
2023/10/03 10:21:37;;;;;;;18.07;11.43;;;;;;;20.24;72.02;100296.66;5034353;28;20215;-73
2023/10/03 10:24:28;;;;;;;14.43;9.77;;;;;;;20.48;70.89;100279.34;5033969;28;20235;-72
2023/10/03 10:26:59;;;;;;;16.23;10.03;;;;;;;20.63;70.17;100285.16;5033978;28;20187;-73
2023/10/03 10:29:34;;;;;;;14.23;9.03;;;;;;;20.60;70.44;100287.50;5034012;28;20198;-73
2023/10/03 10:32:18;;;;;;;14.83;8.00;;;;;;;20.59;68.70;100286.69;5034195;28;20197;-74
2023/10/03 10:34:47;;;;;;;13.87;7.77;;;;;;;20.72;68.21;100274.72;5034105;28;20234;-73
2023/10/03 10:37:18;;;;;;;17.40;7.97;;;;;;;20.85;68.75;100290.00;5033796;28;20652;-73
2023/10/03 10:40:10;;;;;;;13.10;8.07;;;;;;;21.02;68.55;100293.63;5033719;28;20207;-73
2023/10/03 10:42:59;;;;;;;11.93;7.10;;;;;;;21.05;67.98;100296.72;5033981;28;20207;-72
2023/10/03 10:45:37;;;;;;;11.10;6.57;;;;;;;21.01;67.75;100283.81;5033904;28;20353;-73
2023/10/03 10:48:07;;;;;;;11.63;6.60;;;;;;;20.90;67.46;100276.47;5034360;28;20196;-72
2023/10/03 10:51:12;;;;;;;10.57;6.10;;;;;;;20.86;66.79;100286.19;5033923;28;20209;-73
2023/10/03 10:53:47;;;;;;;10.13;6.63;;;;;;;20.91;68.27;100283.59;5033830;28;20234;-73
2023/10/03 10:56:16;;;;;;;8.33;5.10;;;;;;;20.87;66.46;100288.69;5033855;28;20216;-73
2023/10/03 10:58:52;;;;;;;7.83;5.43;;;;;;;20.87;66.23;100282.41;5033739;28;20262;-73
2023/10/03 11:01:21;;;;;;;6.47;5.23;;;;;;;20.84;66.61;100296.50;5033355;28;20197;-73
2023/10/03 11:03:50;;;;;;;7.73;4.77;;;;;;;20.81;65.79;100305.97;5033639;28;20231;-73
2023/10/03 11:06:20;;;;;;;7.20;4.60;;;;;;;20.74;65.32;100333.28;5033578;28;20206;-73
2023/10/03 11:08:49;;;;;;;6.53;3.90;;;;;;;20.65;65.61;100337.41;5033628;28;20206;-73
2023/10/03 11:11:19;;;;;;;6.07;4.50;;;;;;;20.61;66.50;100328.09;5033266;28;20590;-73
2023/10/03 11:13:51;;;;;;;9.40;4.03;;;;;;;20.59;66.57;100329.38;5033187;28;20584;-73
2023/10/03 11:16:25;;;;;;;7.60;4.03;;;;;;;20.56;66.53;100330.69;5033285;28;20198;-73
2023/10/03 11:18:55;;;;;;;6.40;3.97;;;;;;;20.55;66.93;100328.19;5033321;28;20202;-73
2023/10/03 11:21:24;;;;;;;6.07;3.97;;;;;;;20.59;66.77;100332.91;5033259;28;20191;-73
2023/10/03 11:24:13;;;;;;;8.87;4.27;;;;;;;20.63;66.67;100325.94;5032913;28;20776;-74
2023/10/03 11:26:47;;;;;;;6.77;3.60;;;;;;;20.64;66.21;100324.91;5033998;28;20194;-73
2023/10/03 11:29:46;;;;;;;6.90;4.17;;;;;;;20.64;66.08;100333.06;5034232;28;20191;-73
2023/10/03 11:32:22;;;;;;;7.70;3.60;;;;;;;20.63;66.58;100331.41;5009714;28;20199;-73